createdAt,value
2016-05-27T00:00:00.559Z,18.7
2016-05-27T00:00:10.528Z,18.6
2016-05-27T00:00:20.528Z,18.6
2016-05-27T00:00:30.512Z,18.7
2016-05-27T00:00:40.496Z,18.6
2016-05-27T00:00:50.481Z,18.6
2016-05-27T00:01:00.467Z,18.6
2016-05-27T00:01:10.467Z,18.7
2016-05-27T00:01:20.452Z,18.5
2016-05-27T00:01:30.436Z,18.6
2016-05-27T00:01:40.436Z,18.6
2016-05-27T00:01:50.420Z,18.6
2016-05-27T00:02:00.408Z,18.7
2016-05-27T00:02:10.408Z,18.6
2016-05-27T00:02:20.236Z,18.7
2016-05-27T00:02:30.376Z,18.6
2016-05-27T00:02:40.361Z,18.7
2016-05-27T00:02:50.345Z,18.7
2016-05-27T00:03:00.192Z,18.5
2016-05-27T00:03:10.333Z,18.7
2016-05-27T00:03:20.317Z,18.7
2016-05-27T00:03:30.176Z,18.5
2016-05-27T00:03:40.301Z,18.6
2016-05-27T00:03:50.645Z,18.6
2016-05-27T00:04:00.289Z,18.6
2016-05-27T00:04:10.570Z,18.5
2016-05-27T00:04:20.679Z,18.6
2016-05-27T00:04:30.695Z,18.6
2016-05-27T00:04:40.242Z,18.5
2016-05-27T00:04:50.070Z,18.6
2016-05-27T00:05:00.213Z,18.5
2016-05-27T00:05:10.041Z,18.5
2016-05-27T00:05:20.197Z,18.5
2016-05-27T00:05:30.181Z,18.7
2016-05-27T00:05:40.166Z,18.7
2016-05-27T00:05:50.150Z,18.6
2016-05-27T00:06:00.153Z,18.5
2016-05-27T00:06:10.137Z,18.6
2016-05-27T00:06:20.122Z,18.6
2016-05-27T00:06:30.122Z,18.7
2016-05-27T00:06:39.950Z,18.6
2016-05-27T00:06:50.091Z,18.6
2016-05-27T00:07:00.094Z,18.7
2016-05-27T00:07:10.094Z,18.6
2016-05-27T00:07:20.062Z,18.6
2016-05-27T00:07:30.047Z,18.6
2016-05-27T00:07:39.890Z,18.5
2016-05-27T00:07:50.031Z,18.5
2016-05-27T00:07:59.877Z,18.6
2016-05-27T00:08:10.002Z,18.6
2016-05-27T00:08:20.002Z,18.6
2016-05-27T00:08:29.986Z,18.5
2016-05-27T00:08:39.971Z,18.5
2016-05-27T00:08:49.955Z,18.5
2016-05-27T00:08:59.958Z,18.6
2016-05-27T00:09:09.942Z,18.4
2016-05-27T00:09:19.927Z,18.5
2016-05-27T00:09:29.911Z,18.4
2016-05-27T00:09:39.911Z,18.4
2016-05-27T00:09:49.739Z,18.4
2016-05-27T00:09:59.742Z,18.5
2016-05-27T00:10:09.883Z,18.6
2016-05-27T00:10:19.867Z,18.4
2016-05-27T00:10:29.852Z,18.5
2016-05-27T00:10:39.852Z,18.5
2016-05-27T00:10:49.852Z,18.5
2016-05-27T00:10:59.822Z,18.4
2016-05-27T00:11:09.666Z,18.4
2016-05-27T00:11:19.807Z,18.5
2016-05-27T00:11:29.791Z,18.4
2016-05-27T00:11:39.791Z,18.4
2016-05-27T00:11:49.760Z,18.4
2016-05-27T00:11:59.763Z,18.4
2016-05-27T00:12:09.747Z,18.4
2016-05-27T00:12:19.732Z,18.3
2016-05-27T00:12:29.716Z,18.4
2016-05-27T00:12:39.716Z,18.3
2016-05-27T00:12:49.700Z,18.5
2016-05-27T00:12:59.687Z,18.3
2016-05-27T00:13:09.687Z,18.5
2016-05-27T00:13:19.687Z,18.5
2016-05-27T00:13:29.655Z,18.4
2016-05-27T00:13:39.640Z,18.4
2016-05-27T00:13:49.640Z,18.4
2016-05-27T00:13:59.488Z,18.5
2016-05-27T00:14:09.628Z,18.5
2016-05-27T00:14:19.613Z,18.4
2016-05-27T00:14:29.597Z,18.4
2016-05-27T00:14:39.441Z,18.3
2016-05-27T00:14:49.581Z,18.5
2016-05-27T00:14:59.411Z,18.4
2016-05-27T00:15:09.568Z,18.3
2016-05-27T00:15:19.536Z,18.4
2016-05-27T00:15:29.521Z,18.4
2016-05-27T00:15:39.521Z,18.5
2016-05-27T00:15:49.505Z,18.4
2016-05-27T00:15:59.507Z,18.3
2016-05-27T00:16:09.476Z,18.3
2016-05-27T00:16:19.476Z,18.4
2016-05-27T00:16:29.476Z,18.4
2016-05-27T00:16:39.445Z,18.3
2016-05-27T00:16:49.445Z,18.4
2016-05-27T00:16:59.432Z,18.4
2016-05-27T00:17:09.416Z,18.3
2016-05-27T00:17:19.260Z,18.5
2016-05-27T00:17:29.401Z,18.3
2016-05-27T00:17:39.385Z,18.4
2016-05-27T00:17:49.370Z,18.3
2016-05-27T00:17:59.216Z,18.3
2016-05-27T00:18:09.357Z,18.2
2016-05-27T00:18:19.201Z,18.3
2016-05-27T00:18:29.201Z,18.4
2016-05-27T00:18:39.326Z,18.2
2016-05-27T00:18:49.826Z,18.4
2016-05-27T00:18:59.516Z,18.3
2016-05-27T00:19:09.297Z,18.3
2016-05-27T00:19:19.282Z,18.4
2016-05-27T00:19:29.126Z,18.3
2016-05-27T00:19:39.251Z,18.3
2016-05-27T00:19:49.251Z,18.3
2016-05-27T00:19:59.238Z,18.4
2016-05-27T00:20:09.222Z,18.4
2016-05-27T00:20:19.222Z,18.3
2016-05-27T00:20:29.050Z,18.4
2016-05-27T00:20:39.191Z,18.3
2016-05-27T00:20:49.175Z,18.3
2016-05-27T00:20:59.177Z,18.3
2016-05-27T00:21:09.021Z,18.2
2016-05-27T00:21:19.146Z,18.3
2016-05-27T00:21:29.146Z,18.3
2016-05-27T00:21:39.131Z,18.2
2016-05-27T00:21:49.115Z,18.1
2016-05-27T00:21:59.117Z,18.3
2016-05-27T00:22:09.101Z,18.2
2016-05-27T00:22:19.086Z,18.2
2016-05-27T00:22:29.086Z,18.2
2016-05-27T00:22:39.070Z,18.2
2016-05-27T00:22:49.054Z,18.3
2016-05-27T00:22:59.042Z,18.2
2016-05-27T00:23:09.026Z,18.3
2016-05-27T00:23:19.011Z,18.3
2016-05-27T00:23:29.011Z,18.2
2016-05-27T00:23:39.026Z,18.3
2016-05-27T00:23:48.979Z,18.2
2016-05-27T00:23:58.983Z,18.2
2016-05-27T00:24:08.968Z,18.2
2016-05-27T00:24:18.968Z,18.2
2016-05-27T00:24:28.952Z,18.1
2016-05-27T00:24:38.936Z,18.1
2016-05-27T00:24:48.983Z,18.2
2016-05-27T00:24:58.938Z,18.1
2016-05-27T00:25:08.907Z,18.1
2016-05-27T00:25:18.892Z,18.2
2016-05-27T00:25:28.876Z,18.2
2016-05-27T00:25:38.876Z,18.2
2016-05-27T00:25:48.704Z,18.2
2016-05-27T00:25:58.848Z,18.1
2016-05-27T00:26:08.832Z,18.1
2016-05-27T00:26:18.832Z,18.2
2016-05-27T00:26:28.660Z,18.3
2016-05-27T00:26:38.801Z,18.2
2016-05-27T00:26:48.801Z,18.1
2016-05-27T00:26:58.787Z,18
2016-05-27T00:27:08.615Z,18.2
2016-05-27T00:27:18.772Z,18.1
2016-05-27T00:27:28.740Z,18.1
2016-05-27T00:27:38.740Z,18
2016-05-27T00:27:48.725Z,18
2016-05-27T00:27:58.712Z,18.1
2016-05-27T00:28:08.712Z,18.1
2016-05-27T00:28:18.696Z,18.1
2016-05-27T00:28:28.681Z,18.1
2016-05-27T00:28:38.525Z,18
2016-05-27T00:28:48.665Z,18
2016-05-27T00:28:58.495Z,18.2
2016-05-27T00:29:08.636Z,18
2016-05-27T00:29:18.636Z,18
2016-05-27T00:29:28.620Z,18
2016-05-27T00:29:38.605Z,18.1
2016-05-27T00:29:48.589Z,18
2016-05-27T00:29:58.576Z,18.1
2016-05-27T00:30:08.576Z,18
2016-05-27T00:30:18.420Z,18.1
2016-05-27T00:30:28.545Z,18.1
2016-05-27T00:30:38.545Z,18
2016-05-27T00:30:48.530Z,18
2016-05-27T00:30:58.517Z,18.2
2016-05-27T00:31:08.517Z,18.1
2016-05-27T00:31:18.501Z,18
2016-05-27T00:31:28.486Z,18.1
2016-05-27T00:31:38.470Z,18
2016-05-27T00:31:48.470Z,18.2
2016-05-27T00:31:58.473Z,17.9
2016-05-27T00:32:08.301Z,18
2016-05-27T00:32:18.426Z,18.1
2016-05-27T00:32:28.426Z,18.2
2016-05-27T00:32:38.411Z,18.1
2016-05-27T00:32:48.411Z,18
2016-05-27T00:32:58.225Z,18
2016-05-27T00:33:08.381Z,17.9
2016-05-27T00:33:18.366Z,17.9
2016-05-27T00:33:28.209Z,18.1
2016-05-27T00:33:38.209Z,17.9
2016-05-27T00:33:48.178Z,18
2016-05-27T00:33:58.181Z,17.9
2016-05-27T00:34:08.322Z,18
2016-05-27T00:34:18.150Z,18
2016-05-27T00:34:28.634Z,17.9
2016-05-27T00:34:38.275Z,18.1
2016-05-27T00:34:48.275Z,18
2016-05-27T00:34:58.261Z,18
2016-05-27T00:35:08.246Z,17.9
2016-05-27T00:35:18.230Z,18.1
2016-05-27T00:35:28.230Z,18
2016-05-27T00:35:38.214Z,18.1
2016-05-27T00:35:48.199Z,17.9
2016-05-27T00:35:58.202Z,18.1
2016-05-27T00:36:08.186Z,18.1
2016-05-27T00:36:18.171Z,18
2016-05-27T00:36:28.171Z,18.1
2016-05-27T00:36:38.155Z,18
2016-05-27T00:36:48.139Z,17.9
2016-05-27T00:36:58.142Z,18
2016-05-27T00:37:08.111Z,18.1
2016-05-27T00:37:18.111Z,18.1
2016-05-27T00:37:28.095Z,17.9
2016-05-27T00:37:38.080Z,18
2016-05-27T00:37:47.939Z,17.9
2016-05-27T00:37:58.067Z,18
2016-05-27T00:38:07.895Z,18.1
2016-05-27T00:38:18.052Z,18
2016-05-27T00:38:27.880Z,17.9
2016-05-27T00:38:38.020Z,17.9
2016-05-27T00:38:48.005Z,18
2016-05-27T00:38:58.007Z,18
2016-05-27T00:39:08.007Z,18
2016-05-27T00:39:17.819Z,18
2016-05-27T00:39:27.960Z,18.1
2016-05-27T00:39:37.944Z,18.1
2016-05-27T00:39:47.944Z,18.1
2016-05-27T00:39:57.932Z,18
2016-05-27T00:40:07.775Z,18.1
2016-05-27T00:40:17.760Z,18
2016-05-27T00:40:27.900Z,18
2016-05-27T00:40:37.885Z,18.1
2016-05-27T00:40:47.869Z,18
2016-05-27T00:40:57.872Z,17.9
2016-05-27T00:41:07.856Z,18.1
2016-05-27T00:41:17.841Z,18
2016-05-27T00:41:27.825Z,18
2016-05-27T00:41:37.825Z,17.9
2016-05-27T00:41:47.810Z,18
2016-05-27T00:41:57.653Z,17.9
2016-05-27T00:42:07.796Z,18
2016-05-27T00:42:17.780Z,18
2016-05-27T00:42:27.765Z,18
2016-05-27T00:42:37.749Z,18.2
2016-05-27T00:42:47.593Z,18
2016-05-27T00:42:57.733Z,18.1
2016-05-27T00:43:07.721Z,18
2016-05-27T00:43:17.565Z,18
2016-05-27T00:43:27.721Z,18
2016-05-27T00:43:37.690Z,18.1
2016-05-27T00:43:47.674Z,18.1
2016-05-27T00:43:57.674Z,18.1
2016-05-27T00:44:07.661Z,18.1
2016-05-27T00:44:17.661Z,18
2016-05-27T00:44:27.630Z,18
2016-05-27T00:44:37.630Z,18
2016-05-27T00:44:47.614Z,18
2016-05-27T00:44:57.599Z,18
2016-05-27T00:45:07.586Z,18.1
2016-05-27T00:45:17.586Z,18.2
2016-05-27T00:45:27.571Z,18
2016-05-27T00:45:37.555Z,18
2016-05-27T00:45:47.399Z,18
2016-05-27T00:45:57.555Z,18
2016-05-27T00:46:07.526Z,18.1
2016-05-27T00:46:17.526Z,18
2016-05-27T00:46:27.510Z,18.1
2016-05-27T00:46:37.494Z,18
2016-05-27T00:46:47.479Z,18
2016-05-27T00:46:57.479Z,18
2016-05-27T00:47:07.466Z,18
2016-05-27T00:47:17.451Z,18
2016-05-27T00:47:27.294Z,18
2016-05-27T00:47:37.419Z,18
2016-05-27T00:47:47.419Z,18
2016-05-27T00:47:57.404Z,18
2016-05-27T00:48:07.406Z,17.9
2016-05-27T00:48:17.390Z,18
2016-05-27T00:48:27.234Z,17.9
2016-05-27T00:48:37.765Z,18.1
2016-05-27T00:48:47.359Z,18
2016-05-27T00:48:57.187Z,18
2016-05-27T00:49:07.332Z,17.9
2016-05-27T00:49:17.582Z,18
2016-05-27T00:49:27.160Z,18
2016-05-27T00:49:37.300Z,17.9
2016-05-27T00:49:47.300Z,18
2016-05-27T00:49:57.128Z,18
2016-05-27T00:50:07.271Z,17.9
2016-05-27T00:50:17.255Z,18
2016-05-27T00:50:27.240Z,18
2016-05-27T00:50:37.224Z,18
2016-05-27T00:50:47.224Z,18
2016-05-27T00:50:57.209Z,18
2016-05-27T00:51:07.212Z,17.9
2016-05-27T00:51:17.040Z,17.9
2016-05-27T00:51:27.180Z,17.9
2016-05-27T00:51:37.165Z,17.8
2016-05-27T00:51:47.165Z,18
2016-05-27T00:51:57.149Z,17.9
2016-05-27T00:52:07.135Z,18
2016-05-27T00:52:17.151Z,17.9
2016-05-27T00:52:27.120Z,17.9
2016-05-27T00:52:37.104Z,17.9
2016-05-27T00:52:47.104Z,17.9
2016-05-27T00:52:57.073Z,18
2016-05-27T00:53:07.076Z,17.9
2016-05-27T00:53:17.060Z,17.8
2016-05-27T00:53:27.045Z,17.9
2016-05-27T00:53:37.045Z,17.9
2016-05-27T00:53:47.029Z,17.9
2016-05-27T00:53:57.013Z,17.9
2016-05-27T00:54:07.001Z,18
2016-05-27T00:54:17.001Z,17.9
2016-05-27T00:54:26.985Z,17.8
2016-05-27T00:54:36.813Z,17.9
2016-05-27T00:54:46.813Z,17.9
2016-05-27T00:54:56.798Z,17.8
2016-05-27T00:55:06.940Z,17.9
2016-05-27T00:55:16.925Z,18
2016-05-27T00:55:26.925Z,17.8
2016-05-27T00:55:36.909Z,17.9
2016-05-27T00:55:46.893Z,17.9
2016-05-27T00:55:56.909Z,17.8
2016-05-27T00:56:06.881Z,17.9
2016-05-27T00:56:16.865Z,17.8
2016-05-27T00:56:26.709Z,17.9
2016-05-27T00:56:36.850Z,17.9
2016-05-27T00:56:46.834Z,17.9
2016-05-27T00:56:56.818Z,17.9
2016-05-27T00:57:06.806Z,17.9
2016-05-27T00:57:16.649Z,17.9
2016-05-27T00:57:26.634Z,17.9
2016-05-27T00:57:36.774Z,17.9
2016-05-27T00:57:46.759Z,17.8
2016-05-27T00:57:56.743Z,17.8
2016-05-27T00:58:06.589Z,17.9
2016-05-27T00:58:16.745Z,17.7
2016-05-27T00:58:26.730Z,17.8
2016-05-27T00:58:36.714Z,17.9
2016-05-27T00:58:46.714Z,17.9
2016-05-27T00:58:56.698Z,17.8
2016-05-27T00:59:06.671Z,17.8
2016-05-27T00:59:16.671Z,18
2016-05-27T00:59:26.499Z,17.8
2016-05-27T00:59:36.655Z,17.8
2016-05-27T00:59:46.640Z,17.8
2016-05-27T00:59:56.624Z,17.8
2016-05-27T01:00:06.626Z,17.7
2016-05-27T01:00:16.454Z,17.8
2016-05-27T01:00:26.595Z,17.9
2016-05-27T01:00:36.595Z,18
2016-05-27T01:00:46.579Z,17.8
2016-05-27T01:00:56.564Z,17.8
2016-05-27T01:01:06.550Z,17.8
2016-05-27T01:01:16.534Z,17.8
2016-05-27T01:01:26.534Z,17.9
2016-05-27T01:01:36.519Z,17.7
2016-05-27T01:01:46.503Z,17.8
2016-05-27T01:01:56.488Z,17.8
2016-05-27T01:02:06.492Z,17.9
2016-05-27T01:02:16.476Z,17.8
2016-05-27T01:02:26.460Z,17.8
2016-05-27T01:02:36.445Z,17.8
2016-05-27T01:02:46.445Z,17.9
2016-05-27T01:02:56.273Z,17.7
2016-05-27T01:03:06.431Z,17.8
2016-05-27T01:03:16.415Z,17.9
2016-05-27T01:03:26.400Z,17.8
2016-05-27T01:03:36.384Z,17.7
2016-05-27T01:03:46.619Z,17.8
2016-05-27T01:03:56.369Z,17.9
2016-05-27T01:04:06.903Z,17.8
2016-05-27T01:04:16.606Z,17.7
2016-05-27T01:04:26.434Z,17.8
2016-05-27T01:04:36.325Z,17.8
2016-05-27T01:04:46.309Z,17.7
2016-05-27T01:04:56.293Z,17.8
2016-05-27T01:05:06.124Z,17.8
2016-05-27T01:05:16.280Z,17.7
2016-05-27T01:05:26.264Z,17.8
2016-05-27T01:05:36.092Z,17.7
2016-05-27T01:05:46.249Z,17.8
2016-05-27T01:05:56.233Z,17.7
2016-05-27T01:06:06.220Z,17.8
2016-05-27T01:06:16.205Z,17.8
2016-05-27T01:06:26.205Z,17.7
2016-05-27T01:06:36.189Z,17.8
2016-05-27T01:06:46.189Z,17.8
2016-05-27T01:06:56.158Z,17.7
2016-05-27T01:07:06.161Z,17.8
2016-05-27T01:07:16.145Z,17.8
2016-05-27T01:07:25.989Z,17.7
2016-05-27T01:07:36.114Z,17.7
2016-05-27T01:07:46.114Z,17.8
2016-05-27T01:07:55.942Z,17.8
2016-05-27T01:08:05.944Z,17.8
2016-05-27T01:08:16.085Z,17.8
2016-05-27T01:08:26.069Z,17.8
2016-05-27T01:08:36.053Z,17.7
2016-05-27T01:08:46.038Z,17.8
2016-05-27T01:08:56.038Z,17.7
2016-05-27T01:09:06.025Z,17.7
2016-05-27T01:09:16.010Z,17.8
2016-05-27T01:09:25.994Z,17.7
2016-05-27T01:09:35.838Z,17.7
2016-05-27T01:09:45.978Z,17.7
2016-05-27T01:09:55.963Z,17.7
2016-05-27T01:10:05.965Z,17.7
2016-05-27T01:10:15.793Z,17.7
2016-05-27T01:10:25.933Z,17.8
2016-05-27T01:10:35.918Z,17.7
2016-05-27T01:10:45.918Z,17.6
2016-05-27T01:10:55.902Z,17.8
2016-05-27T01:11:05.905Z,17.8
2016-05-27T01:11:15.890Z,17.8
2016-05-27T01:11:25.874Z,17.7
2016-05-27T01:11:35.858Z,17.7
2016-05-27T01:11:45.858Z,17.7
2016-05-27T01:11:55.827Z,17.8
2016-05-27T01:12:05.830Z,17.7
2016-05-27T01:12:15.830Z,17.7
2016-05-27T01:12:25.799Z,17.7
2016-05-27T01:12:35.799Z,17.7
2016-05-27T01:12:45.783Z,17.7
2016-05-27T01:12:55.768Z,17.7
2016-05-27T01:13:05.771Z,17.7
2016-05-27T01:13:15.755Z,17.5
2016-05-27T01:13:25.739Z,17.7
2016-05-27T01:13:35.724Z,17.6
2016-05-27T01:13:45.724Z,17.7
2016-05-27T01:13:55.708Z,17.8
2016-05-27T01:14:05.539Z,17.8
2016-05-27T01:14:15.680Z,17.7
2016-05-27T01:14:25.664Z,17.8
2016-05-27T01:14:35.664Z,17.8
2016-05-27T01:14:45.649Z,17.8
2016-05-27T01:14:55.649Z,17.7
2016-05-27T01:15:05.635Z,17.7
2016-05-27T01:15:15.619Z,17.8
2016-05-27T01:15:25.604Z,17.8
2016-05-27T01:15:35.432Z,17.7
2016-05-27T01:15:45.432Z,17.6
2016-05-27T01:15:55.572Z,17.7
2016-05-27T01:16:05.560Z,17.8
2016-05-27T01:16:15.544Z,17.7
2016-05-27T01:16:25.544Z,17.8
2016-05-27T01:16:35.544Z,17.8
2016-05-27T01:16:45.513Z,17.8
2016-05-27T01:16:55.513Z,17.8
2016-05-27T01:17:05.344Z,17.8
2016-05-27T01:17:15.485Z,17.7
2016-05-27T01:17:25.469Z,17.8
2016-05-27T01:17:35.469Z,17.8
2016-05-27T01:17:45.453Z,17.8
2016-05-27T01:17:55.453Z,17.8
2016-05-27T01:18:05.441Z,17.8
2016-05-27T01:18:15.425Z,17.7
2016-05-27T01:18:25.269Z,17.7
2016-05-27T01:18:35.410Z,17.8
2016-05-27T01:18:45.394Z,17.8
2016-05-27T01:18:56.347Z,17.8
2016-05-27T01:19:05.615Z,17.8
2016-05-27T01:19:15.380Z,17.7
2016-05-27T01:19:25.349Z,17.7
2016-05-27T01:19:35.333Z,17.7
2016-05-27T01:19:45.162Z,17.7
2016-05-27T01:19:55.302Z,17.7
2016-05-27T01:20:05.305Z,17.7
2016-05-27T01:20:15.290Z,17.7
2016-05-27T01:20:25.274Z,17.9
2016-05-27T01:20:35.274Z,17.6
2016-05-27T01:20:45.274Z,17.8
2016-05-27T01:20:55.243Z,17.8
2016-05-27T01:21:05.245Z,17.7
2016-05-27T01:21:15.229Z,17.8
2016-05-27T01:21:25.213Z,17.7
2016-05-27T01:21:35.198Z,17.7
2016-05-27T01:21:45.042Z,17.7
2016-05-27T01:21:55.182Z,17.7
2016-05-27T01:22:05.171Z,17.8
2016-05-27T01:22:15.171Z,17.7
2016-05-27T01:22:25.155Z,17.9
2016-05-27T01:22:35.139Z,17.7
2016-05-27T01:22:45.124Z,17.8
2016-05-27T01:22:55.108Z,17.7
2016-05-27T01:23:05.125Z,17.7
2016-05-27T01:23:15.093Z,17.8
2016-05-27T01:23:25.078Z,17.9
2016-05-27T01:23:35.078Z,17.8
2016-05-27T01:23:45.062Z,17.8
2016-05-27T01:23:55.062Z,17.7
2016-05-27T01:24:05.034Z,17.8
2016-05-27T01:24:15.018Z,17.8
2016-05-27T01:24:25.018Z,17.8
2016-05-27T01:24:35.003Z,17.8
2016-05-27T01:24:44.987Z,17.8
2016-05-27T01:24:54.987Z,17.8
2016-05-27T01:25:04.818Z,17.9
2016-05-27T01:25:14.959Z,17.9
2016-05-27T01:25:24.959Z,17.9
2016-05-27T01:25:34.943Z,17.9
2016-05-27T01:25:44.928Z,17.7
2016-05-27T01:25:54.928Z,17.8
2016-05-27T01:26:04.759Z,17.9
2016-05-27T01:26:14.899Z,17.8
2016-05-27T01:26:24.899Z,17.8
2016-05-27T01:26:34.868Z,17.8
2016-05-27T01:26:44.868Z,17.8
2016-05-27T01:26:54.852Z,17.8
2016-05-27T01:27:04.840Z,17.8
2016-05-27T01:27:14.840Z,17.7
2016-05-27T01:27:24.824Z,17.9
2016-05-27T01:27:34.809Z,17.8
2016-05-27T01:27:44.793Z,17.8
2016-05-27T01:27:54.637Z,17.8
2016-05-27T01:28:04.780Z,17.9
2016-05-27T01:28:14.765Z,17.9
2016-05-27T01:28:24.749Z,17.9
2016-05-27T01:28:34.749Z,17.9
2016-05-27T01:28:44.733Z,17.9
2016-05-27T01:28:54.718Z,17.8
2016-05-27T01:29:04.704Z,17.9
2016-05-27T01:29:14.704Z,17.8
2016-05-27T01:29:24.704Z,17.8
2016-05-27T01:29:34.689Z,17.8
2016-05-27T01:29:44.657Z,17.8
2016-05-27T01:29:54.657Z,17.9
2016-05-27T01:30:04.645Z,17.9
2016-05-27T01:30:14.645Z,17.9
2016-05-27T01:30:24.629Z,17.9
2016-05-27T01:30:34.613Z,17.9
2016-05-27T01:30:44.613Z,17.9
2016-05-27T01:30:54.582Z,17.9
2016-05-27T01:31:04.584Z,17.9
2016-05-27T01:31:14.569Z,17.9
2016-05-27T01:31:24.553Z,17.9
2016-05-27T01:31:34.537Z,17.9
2016-05-27T01:31:44.537Z,17.9
2016-05-27T01:31:54.522Z,17.9
2016-05-27T01:32:04.509Z,17.8
2016-05-27T01:32:14.509Z,17.9
2016-05-27T01:32:24.493Z,17.9
2016-05-27T01:32:34.478Z,17.9
2016-05-27T01:32:44.478Z,17.8
2016-05-27T01:32:54.462Z,17.8
2016-05-27T01:33:04.465Z,17.8
2016-05-27T01:33:14.434Z,17.8
2016-05-27T01:33:24.637Z,17.8
2016-05-27T01:33:34.825Z,17.9
2016-05-27T01:33:44.590Z,17.8
2016-05-27T01:33:54.684Z,17.9
2016-05-27T01:34:04.234Z,17.9
2016-05-27T01:34:14.374Z,17.8
2016-05-27T01:34:24.390Z,17.8
2016-05-27T01:34:34.203Z,17.9
2016-05-27T01:34:44.343Z,17.9
2016-05-27T01:34:54.328Z,17.9
2016-05-27T01:35:04.314Z,17.8
2016-05-27T01:35:14.330Z,17.8
2016-05-27T01:35:24.314Z,17.8
2016-05-27T01:35:34.283Z,17.9
2016-05-27T01:35:44.267Z,18
2016-05-27T01:35:54.267Z,17.9
2016-05-27T01:36:04.097Z,17.8
2016-05-27T01:36:14.238Z,17.9
2016-05-27T01:36:24.082Z,17.8
2016-05-27T01:36:34.222Z,17.8
2016-05-27T01:36:44.207Z,17.9
2016-05-27T01:36:54.191Z,17.8
2016-05-27T01:37:04.195Z,17.8
2016-05-27T01:37:14.179Z,17.8
2016-05-27T01:37:24.164Z,17.8
2016-05-27T01:37:34.164Z,17.8
2016-05-27T01:37:43.992Z,17.8
2016-05-27T01:37:54.148Z,17.7
2016-05-27T01:38:03.978Z,17.8
2016-05-27T01:38:14.103Z,17.8
2016-05-27T01:38:24.103Z,17.7
2016-05-27T01:38:33.931Z,17.7
2016-05-27T01:38:44.072Z,17.8
2016-05-27T01:38:54.072Z,17.7
2016-05-27T01:39:03.903Z,17.7
2016-05-27T01:39:13.903Z,17.8
2016-05-27T01:39:23.872Z,17.7
2016-05-27T01:39:34.028Z,17.8
2016-05-27T01:39:44.012Z,17.7
2016-05-27T01:39:54.012Z,17.7
2016-05-27T01:40:03.843Z,17.8
2016-05-27T01:40:13.843Z,17.8
2016-05-27T01:40:23.968Z,17.7
2016-05-27T01:40:33.952Z,17.8
2016-05-27T01:40:43.936Z,17.8
2016-05-27T01:40:53.936Z,17.8
2016-05-27T01:41:03.939Z,17.8
2016-05-27T01:41:13.908Z,17.8
2016-05-27T01:41:23.908Z,17.7
2016-05-27T01:41:33.908Z,17.8
2016-05-27T01:41:43.721Z,17.8
2016-05-27T01:41:53.861Z,17.8
2016-05-27T01:42:03.864Z,17.8
2016-05-27T01:42:13.849Z,17.7
2016-05-27T01:42:23.849Z,17.8
2016-05-27T01:42:33.833Z,17.7
2016-05-27T01:42:43.661Z,17.7
2016-05-27T01:42:53.802Z,17.7
2016-05-27T01:43:03.805Z,17.7
2016-05-27T01:43:13.773Z,17.8
2016-05-27T01:43:23.773Z,17.7
2016-05-27T01:43:33.758Z,17.8
2016-05-27T01:43:43.758Z,17.7
2016-05-27T01:43:53.742Z,17.9
2016-05-27T01:44:03.729Z,17.7
2016-05-27T01:44:13.713Z,17.8
2016-05-27T01:44:23.557Z,17.8
2016-05-27T01:44:33.697Z,17.8
2016-05-27T01:44:43.682Z,17.8
2016-05-27T01:44:53.682Z,17.9
2016-05-27T01:45:03.669Z,17.6
2016-05-27T01:45:13.653Z,17.8
2016-05-27T01:45:23.638Z,17.8
2016-05-27T01:45:33.622Z,17.8
2016-05-27T01:45:43.622Z,17.7
2016-05-27T01:45:53.607Z,17.7
2016-05-27T01:46:03.594Z,17.6
2016-05-27T01:46:13.578Z,17.7
2016-05-27T01:46:23.578Z,17.8
2016-05-27T01:46:33.563Z,17.6
2016-05-27T01:46:43.547Z,17.8
2016-05-27T01:46:53.391Z,17.8
2016-05-27T01:47:03.533Z,17.6
2016-05-27T01:47:13.518Z,17.7
2016-05-27T01:47:23.502Z,17.6
2016-05-27T01:47:33.502Z,17.7
2016-05-27T01:47:43.487Z,17.8
2016-05-27T01:47:53.471Z,17.7
2016-05-27T01:48:03.474Z,17.7
2016-05-27T01:48:13.458Z,17.8
2016-05-27T01:48:23.599Z,17.7
2016-05-27T01:48:33.427Z,17.8
2016-05-27T01:48:43.427Z,17.8
2016-05-27T01:48:53.255Z,17.8
2016-05-27T01:49:04.026Z,17.7
2016-05-27T01:49:14.229Z,17.8
2016-05-27T01:49:23.635Z,17.7
2016-05-27T01:49:33.370Z,17.7
2016-05-27T01:49:43.354Z,17.7
2016-05-27T01:49:53.198Z,17.7
2016-05-27T01:50:03.360Z,17.8
2016-05-27T01:50:13.345Z,17.8
2016-05-27T01:50:23.329Z,17.7
2016-05-27T01:50:33.329Z,17.8
2016-05-27T01:50:43.313Z,17.7
2016-05-27T01:50:53.298Z,17.7
2016-05-27T01:51:03.304Z,17.8
2016-05-27T01:51:13.304Z,17.8
2016-05-27T01:51:23.289Z,17.7
2016-05-27T01:51:33.273Z,17.7
2016-05-27T01:51:43.257Z,17.7
2016-05-27T01:51:53.257Z,17.8
2016-05-27T01:52:03.264Z,17.7
2016-05-27T01:52:13.248Z,17.7
2016-05-27T01:52:23.248Z,17.7
2016-05-27T01:52:33.232Z,17.7
2016-05-27T01:52:43.217Z,17.7
2016-05-27T01:52:53.201Z,17.8
2016-05-27T01:53:03.223Z,17.8
2016-05-27T01:53:13.208Z,17.7
2016-05-27T01:53:23.192Z,17.6
2016-05-27T01:53:33.176Z,17.7
2016-05-27T01:53:43.176Z,17.7
2016-05-27T01:53:53.161Z,17.7
2016-05-27T01:54:03.181Z,17.7
2016-05-27T01:54:13.149Z,17.7
2016-05-27T01:54:23.149Z,17.6
2016-05-27T01:54:33.134Z,17.7
2016-05-27T01:54:43.118Z,17.7
2016-05-27T01:54:53.118Z,17.7
2016-05-27T01:55:03.113Z,17.6
2016-05-27T01:55:13.113Z,17.7
2016-05-27T01:55:22.941Z,17.6
2016-05-27T01:55:33.081Z,17.6
2016-05-27T01:55:43.066Z,17.6
2016-05-27T01:55:53.050Z,17.6
2016-05-27T01:56:02.903Z,17.6
2016-05-27T01:56:12.887Z,17.6
2016-05-27T01:56:23.028Z,17.6
2016-05-27T01:56:33.028Z,17.7
2016-05-27T01:56:43.012Z,17.6
2016-05-27T01:56:52.997Z,17.7
2016-05-27T01:57:02.991Z,17.6
2016-05-27T01:57:12.975Z,17.7
2016-05-27T01:57:22.975Z,17.5
2016-05-27T01:57:32.975Z,17.5
2016-05-27T01:57:42.944Z,17.6
2016-05-27T01:57:52.960Z,17.6
2016-05-27T01:58:02.938Z,17.6
2016-05-27T01:58:12.923Z,17.5
2016-05-27T01:58:22.907Z,17.6
2016-05-27T01:58:32.907Z,17.7
2016-05-27T01:58:42.892Z,17.6
2016-05-27T01:58:52.876Z,17.6
2016-05-27T01:59:02.884Z,17.5
2016-05-27T01:59:12.853Z,17.5
2016-05-27T01:59:22.696Z,17.5
2016-05-27T01:59:32.853Z,17.6
2016-05-27T01:59:42.821Z,17.6
2016-05-27T01:59:52.821Z,17.6
2016-05-27T02:00:02.812Z,17.5
2016-05-27T02:00:12.796Z,17.6
2016-05-27T02:00:22.781Z,17.6
2016-05-27T02:00:32.781Z,17.6
2016-05-27T02:00:42.781Z,17.6
2016-05-27T02:00:52.765Z,17.6
2016-05-27T02:01:02.771Z,17.5
2016-05-27T02:01:12.740Z,17.6
2016-05-27T02:01:22.724Z,17.5
2016-05-27T02:01:32.708Z,17.6
2016-05-27T02:01:42.552Z,17.6
2016-05-27T02:01:52.537Z,17.6
2016-05-27T02:02:02.681Z,17.5
2016-05-27T02:02:12.666Z,17.5
2016-05-27T02:02:22.666Z,17.7
2016-05-27T02:02:32.666Z,17.6
2016-05-27T02:02:42.634Z,17.6
2016-05-27T02:02:52.634Z,17.5
2016-05-27T02:03:02.625Z,17.6
2016-05-27T02:03:12.609Z,17.6
2016-05-27T02:03:23.000Z,17.5
2016-05-27T02:03:32.859Z,17.6
2016-05-27T02:03:42.640Z,17.6
2016-05-27T02:03:52.968Z,17.5
2016-05-27T02:04:02.583Z,17.5
2016-05-27T02:04:13.114Z,17.6
2016-05-27T02:04:22.552Z,17.5
2016-05-27T02:04:32.520Z,17.6
2016-05-27T02:04:42.505Z,17.5
2016-05-27T02:04:52.348Z,17.5
2016-05-27T02:05:02.492Z,17.5
2016-05-27T02:05:12.476Z,17.5
2016-05-27T02:05:22.476Z,17.5
2016-05-27T02:05:32.461Z,17.4
2016-05-27T02:05:42.289Z,17.5
2016-05-27T02:05:52.430Z,17.5
2016-05-27T02:06:02.434Z,17.5
2016-05-27T02:06:12.434Z,17.6
2016-05-27T02:06:22.402Z,17.6
2016-05-27T02:06:32.387Z,17.5
2016-05-27T02:06:42.387Z,17.6
2016-05-27T02:06:52.371Z,17.6
2016-05-27T02:07:02.359Z,17.5
2016-05-27T02:07:12.359Z,17.5
2016-05-27T02:07:22.344Z,17.4
2016-05-27T02:07:32.328Z,17.5
2016-05-27T02:07:42.156Z,17.5
2016-05-27T02:07:52.313Z,17.5
2016-05-27T02:08:02.301Z,17.5
2016-05-27T02:08:12.285Z,17.5
2016-05-27T02:08:22.129Z,17.4
2016-05-27T02:08:32.113Z,17.5
2016-05-27T02:08:42.254Z,17.5
2016-05-27T02:08:52.254Z,17.6
2016-05-27T02:09:02.240Z,17.4
2016-05-27T02:09:12.084Z,17.4
2016-05-27T02:09:22.209Z,17.5
2016-05-27T02:09:32.209Z,17.6
2016-05-27T02:09:42.194Z,17.5
2016-05-27T02:09:52.178Z,17.5
2016-05-27T02:10:02.182Z,17.4
2016-05-27T02:10:12.166Z,17.4
2016-05-27T02:10:22.151Z,17.5
2016-05-27T02:10:32.135Z,17.4
2016-05-27T02:10:42.119Z,17.4
2016-05-27T02:10:51.963Z,17.5
2016-05-27T02:11:02.106Z,17.5
2016-05-27T02:11:12.090Z,17.5
2016-05-27T02:11:22.075Z,17.4
2016-05-27T02:11:31.918Z,17.5
2016-05-27T02:11:42.075Z,17.4
2016-05-27T02:11:52.059Z,17.5
2016-05-27T02:12:02.032Z,17.4
2016-05-27T02:12:12.032Z,17.5
2016-05-27T02:12:22.032Z,17.5
2016-05-27T02:12:31.844Z,17.4
2016-05-27T02:12:42.000Z,17.5
2016-05-27T02:12:51.985Z,17.4
2016-05-27T02:13:01.832Z,17.4
2016-05-27T02:13:11.988Z,17.5
2016-05-27T02:13:21.800Z,17.5
2016-05-27T02:13:31.941Z,17.5
2016-05-27T02:13:41.925Z,17.5
2016-05-27T02:13:51.910Z,17.4